Time;durP1;ratioP1;P1;durP2;ratioP2;P2;SDS_P1;SDS_P2;PMS_P1;PMS_P2;Temp;Humidity;BMP_temperature;BMP_pressure;BME280_temperature;BME280_humidity;BME280_pressure;Samples;Min_cycle;Max_cycle;Signal;HPM_P1;HPM_P2
2022/05/21 00:00:41;;;;;;;5.38;2.92;;;15.20;99.90;;;;;;4826502;29;20182;-81
2022/05/21 00:03:09;;;;;;;4.45;2.58;;;15.20;99.90;;;;;;4826819;29;20170;-80
2022/05/21 00:05:35;;;;;;;2.78;2.40;;;15.10;99.90;;;;;;4825471;29;20224;-80
2022/05/21 00:08:04;;;;;;;3.63;2.45;;;15.00;99.90;;;;;;4826705;29;20176;-79
2022/05/21 00:10:32;;;;;;;3.88;2.70;;;15.10;99.90;;;;;;4826589;29;20185;-81
2022/05/21 00:13:00;;;;;;;11.00;3.22;;;15.10;99.90;;;;;;4826694;29;20173;-80
2022/05/21 00:15:28;;;;;;;3.78;2.60;;;15.10;99.90;;;;;;4826040;29;20186;-81
2022/05/21 00:17:54;;;;;;;2.65;2.25;;;15.00;99.90;;;;;;4825453;29;20627;-82
2022/05/21 00:23:32;;;;;;;5.07;2.65;;;14.90;99.90;;;;;;4826764;29;20671;-80
2022/05/21 00:26:07;;;;;;;5.20;2.85;;;15.00;99.90;;;;;;4826583;29;20230;-81
2022/05/21 00:28:35;;;;;;;4.22;2.63;;;14.90;99.90;;;;;;4826428;29;20695;-79
2022/05/21 00:31:02;;;;;;;4.75;1.98;;;14.90;99.90;;;;;;4825925;29;20191;-80
2022/05/21 00:33:28;;;;;;;3.78;1.85;;;14.90;99.90;;;;;;4826562;29;20170;-81
2022/05/21 00:35:54;;;;;;;2.60;1.98;;;14.70;99.90;;;;;;4824908;29;20248;-81
2022/05/21 00:38:20;;;;;;;5.05;1.90;;;14.80;99.90;;;;;;4826229;29;20174;-79
2022/05/21 00:40:48;;;;;;;3.60;2.17;;;14.70;99.90;;;;;;4825749;29;20238;-80
2022/05/21 00:43:34;;;;;;;2.92;2.20;;;14.70;99.90;;;;;;4825713;29;20173;-78
2022/05/21 00:46:00;;;;;;;2.95;2.30;;;14.70;99.90;;;;;;4825533;29;20243;-81
2022/05/21 00:48:26;;;;;;;3.25;2.25;;;14.70;99.90;;;;;;4826061;29;20257;-80
2022/05/21 00:50:52;;;;;;;5.15;2.30;;;14.70;99.90;;;;;;4824694;29;20273;-81
2022/05/21 00:53:19;;;;;;;2.80;2.45;;;14.70;99.90;;;;;;4824757;29;20195;-80
2022/05/21 00:55:46;;;;;;;3.38;2.50;;;14.60;99.90;;;;;;4825338;29;20327;-81
2022/05/21 01:01:00;;;;;;;2.97;2.40;;;14.50;99.90;;;;;;4825882;29;20199;-81
2022/05/21 01:03:29;;;;;;;3.33;2.30;;;14.50;99.90;;;;;;4825943;29;20178;-79
2022/05/21 01:05:57;;;;;;;3.47;2.63;;;14.40;99.90;;;;;;4825442;29;20541;-79
2022/05/21 01:08:22;;;;;;;5.38;2.17;;;14.40;99.90;;;;;;4824703;29;20189;-79
2022/05/21 01:10:55;;;;;;;3.53;2.45;;;14.40;99.90;;;;;;4824455;29;20186;-78
2022/05/21 01:13:25;;;;;;;2.50;2.17;;;14.40;99.90;;;;;;4825894;29;20183;-78
2022/05/21 01:15:53;;;;;;;4.53;2.50;;;14.40;99.90;;;;;;4825302;29;20515;-80
2022/05/21 01:18:20;;;;;;;4.70;2.50;;;14.40;99.90;;;;;;4824396;29;20197;-81
2022/05/21 01:20:52;;;;;;;6.15;2.75;;;14.30;99.90;;;;;;4825738;29;20184;-79
2022/05/21 01:23:19;;;;;;;3.97;2.60;;;14.30;99.90;;;;;;4824751;29;20648;-79
2022/05/21 01:25:47;;;;;;;3.33;2.50;;;14.20;99.90;;;;;;4823990;29;20546;-81
2022/05/21 01:28:14;;;;;;;1.98;1.75;;;14.10;99.90;;;;;;4824414;29;20182;-79
2022/05/21 01:30:46;;;;;;;2.40;2.00;;;14.10;99.90;;;;;;4824083;29;20632;-79
2022/05/21 01:33:14;;;;;;;6.30;1.60;;;14.00;99.90;;;;;;4824873;29;20260;-79
2022/05/21 01:35:41;;;;;;;2.13;1.75;;;14.00;99.90;;;;;;4824221;29;20177;-82
2022/05/21 01:38:09;;;;;;;3.92;1.90;;;14.00;99.90;;;;;;4825567;29;20208;-80
2022/05/21 01:40:35;;;;;;;3.08;1.50;;;14.00;99.90;;;;;;4824077;29;20245;-78
2022/05/21 01:45:45;;;;;;;1.75;1.30;;;13.90;99.90;;;;;;4806742;29;20268;-79
2022/05/21 01:48:12;;;;;;;1.30;1.20;;;13.90;99.90;;;;;;4807312;29;20213;-79
2022/05/21 01:50:38;;;;;;;1.55;1.33;;;13.80;99.90;;;;;;4807151;29;20265;-79
2022/05/21 01:53:05;;;;;;;2.00;1.30;;;13.90;99.90;;;;;;4807607;29;20597;-79
2022/05/21 01:55:31;;;;;;;1.67;1.20;;;13.80;99.90;;;;;;4814570;29;20197;-79
2022/05/21 01:57:57;;;;;;;1.73;1.10;;;13.80;99.90;;;;;;4828882;29;20197;-80
2022/05/21 02:00:22;;;;;;;2.75;1.40;;;13.80;99.90;;;;;;4827328;29;20629;-79
2022/05/21 02:02:48;;;;;;;1.33;1.20;;;13.70;99.90;;;;;;4827511;29;20238;-79
2022/05/21 02:05:14;;;;;;;1.30;1.08;;;13.70;99.90;;;;;;4828529;29;20209;-81
2022/05/21 02:07:40;;;;;;;2.58;1.50;;;13.70;99.90;;;;;;4828648;29;20182;-81
2022/05/21 02:10:06;;;;;;;4.72;1.73;;;13.60;99.90;;;;;;4828537;29;20190;-80
2022/05/21 02:12:32;;;;;;;2.45;1.30;;;13.50;99.90;;;;;;4828642;29;20185;-79
2022/05/21 02:14:58;;;;;;;2.85;1.40;;;13.50;99.90;;;;;;4828205;29;20186;-84
2022/05/21 02:17:24;;;;;;;1.85;1.10;;;13.50;99.90;;;;;;4827280;29;20204;-81
2022/05/21 02:19:50;;;;;;;1.52;1.10;;;13.40;99.90;;;;;;4827319;29;20203;-81
2022/05/21 02:22:17;;;;;;;3.28;1.40;;;13.40;99.90;;;;;;4828405;29;20189;-82
2022/05/21 02:24:43;;;;;;;3.30;1.63;;;13.30;99.90;;;;;;4828094;29;20232;-79
2022/05/21 02:27:10;;;;;;;3.22;1.30;;;13.30;99.90;;;;;;4828166;29;20182;-80
2022/05/21 02:29:36;;;;;;;2.47;1.45;;;13.20;99.90;;;;;;4827920;29;20186;-80
2022/05/21 02:32:02;;;;;;;1.67;1.33;;;13.20;99.90;;;;;;4828412;29;20178;-79
2022/05/21 02:34:28;;;;;;;3.13;1.73;;;13.10;99.90;;;;;;4826789;29;20223;-79
2022/05/21 02:39:38;;;;;;;2.13;1.45;;;13.20;99.90;;;;;;4827929;29;20250;-79
2022/05/21 02:42:43;;;;;;;2.53;1.58;;;13.20;99.90;;;;;;4827994;29;20183;-79
2022/05/21 02:44:53;;;;;;;2.08;1.40;;;13.10;99.90;;;;;;4827303;29;20224;-80
2022/05/21 02:47:19;;;;;;;3.17;1.70;;;13.00;99.90;;;;;;4827958;29;20186;-81
2022/05/21 02:49:45;;;;;;;2.92;2.10;;;13.00;99.90;;;;;;4827764;29;20520;-82
2022/05/21 02:52:10;;;;;;;4.60;1.67;;;13.00;99.90;;;;;;4827861;29;20215;-80
2022/05/21 02:54:36;;;;;;;2.55;1.63;;;13.00;99.90;;;;;;4827970;29;20174;-79
2022/05/21 02:57:03;;;;;;;3.17;1.90;;;13.00;99.90;;;;;;4827819;29;20186;-80
2022/05/21 02:59:29;;;;;;;3.28;1.95;;;13.00;99.90;;;;;;4827480;29;20234;-79
2022/05/21 03:01:55;;;;;;;5.00;2.22;;;13.00;99.90;;;;;;4826565;29;20192;-79
2022/05/21 03:04:21;;;;;;;4.93;1.90;;;13.10;99.90;;;;;;4827217;29;20202;-78
2022/05/21 03:06:47;;;;;;;3.10;2.30;;;13.00;99.90;;;;;;4827760;29;20194;-79
2022/05/21 03:11:57;;;;;;;2.80;2.10;;;12.90;99.90;;;;;;4827617;29;20629;-79
2022/05/21 03:14:23;;;;;;;6.32;2.08;;;12.80;99.90;;;;;;4827346;29;20194;-80
2022/05/21 03:16:48;;;;;;;3.70;2.40;;;12.90;99.90;;;;;;4825954;29;20182;-78
2022/05/21 03:19:15;;;;;;;3.17;2.22;;;12.90;99.90;;;;;;4827392;29;20190;-79
2022/05/21 03:21:40;;;;;;;3.15;1.80;;;12.90;99.90;;;;;;4827508;29;20510;-79
2022/05/21 03:24:06;;;;;;;2.55;2.22;;;12.90;99.90;;;;;;4826050;29;20202;-78
2022/05/21 03:26:32;;;;;;;2.38;1.70;;;12.90;99.90;;;;;;4827354;29;20247;-78
2022/05/21 03:28:58;;;;;;;3.28;2.05;;;12.90;99.90;;;;;;4825467;29;20579;-78
2022/05/21 03:31:24;;;;;;;4.07;2.22;;;12.90;99.90;;;;;;4826805;29;20269;-79
2022/05/21 03:33:50;;;;;;;3.65;2.17;;;12.90;99.90;;;;;;4825986;29;20525;-78
2022/05/21 03:36:15;;;;;;;4.07;2.00;;;12.90;99.90;;;;;;4826043;29;20201;-79
2022/05/21 03:38:41;;;;;;;5.10;2.28;;;12.90;99.90;;;;;;4827019;29;20186;-78
2022/05/21 03:41:07;;;;;;;3.30;2.42;;;12.90;99.90;;;;;;4825887;29;20277;-80
2022/05/21 03:43:33;;;;;;;5.13;2.60;;;12.90;99.90;;;;;;4826963;29;20217;-81
2022/05/21 03:45:59;;;;;;;4.40;3.13;;;12.90;99.90;;;;;;4826576;29;20222;-79
2022/05/21 03:48:25;;;;;;;7.35;2.75;;;13.00;99.90;;;;;;4827107;29;20204;-80
2022/05/21 03:50:50;;;;;;;6.30;3.03;;;13.00;99.90;;;;;;4827027;29;20242;-80
2022/05/21 03:53:17;;;;;;;5.10;3.28;;;13.00;99.90;;;;;;4826916;29;20303;-79
2022/05/21 03:55:44;;;;;;;3.55;2.95;;;13.00;99.90;;;;;;4826843;29;20554;-78
2022/05/21 03:58:10;;;;;;;4.18;2.80;;;13.00;99.90;;;;;;4825696;29;20201;-79
2022/05/21 04:00:38;;;;;;;5.97;3.17;;;13.00;99.90;;;;;;4826343;29;20186;-81
2022/05/21 04:03:04;;;;;;;5.35;3.08;;;13.10;99.90;;;;;;4826879;29;20489;-79
2022/05/21 04:05:30;;;;;;;4.72;3.00;;;13.10;99.90;;;;;;4826636;29;20216;-79
2022/05/21 04:07:56;;;;;;;5.80;3.47;;;13.10;99.90;;;;;;4826708;29;20666;-79
2022/05/21 04:10:22;;;;;;;7.07;3.05;;;13.10;99.90;;;;;;4826727;29;20174;-78
2022/05/21 04:12:48;;;;;;;6.28;3.72;;;13.20;99.90;;;;;;4826596;29;20506;-80
2022/05/21 04:15:14;;;;;;;7.80;3.38;;;13.20;99.90;;;;;;4825653;29;20170;-78
2022/05/21 04:17:40;;;;;;;3.60;3.00;;;13.20;99.90;;;;;;4825488;29;20252;-82
2022/05/21 04:20:09;;;;;;;4.75;3.35;;;13.20;99.90;;;;;;4826592;29;20252;-80
2022/05/21 04:22:36;;;;;;;4.68;3.75;;;13.20;99.90;;;;;;4826485;29;20201;-79
2022/05/21 04:25:02;;;;;;;5.85;3.65;;;13.20;99.90;;;;;;4826306;29;20298;-78
2022/05/21 04:27:27;;;;;;;4.90;3.83;;;13.20;99.90;;;;;;4825215;29;20590;-79
2022/05/21 04:29:53;;;;;;;5.07;3.42;;;13.30;99.90;;;;;;4826067;29;20277;-79
2022/05/21 04:32:19;;;;;;;4.90;3.65;;;13.20;99.90;;;;;;4826455;29;20542;-79
2022/05/21 04:34:46;;;;;;;5.72;3.30;;;13.20;99.90;;;;;;4826259;29;20182;-82
2022/05/21 04:37:11;;;;;;;6.03;3.70;;;13.20;99.90;;;;;;4826384;29;20281;-78
2022/05/21 04:39:37;;;;;;;7.82;3.70;;;13.20;99.90;;;;;;4826096;29;20745;-78
2022/05/21 04:42:03;;;;;;;7.25;4.20;;;13.10;99.90;;;;;;4826281;29;20521;-78
2022/05/21 04:44:31;;;;;;;8.73;3.40;;;13.10;99.90;;;;;;4825949;29;20541;-78
2022/05/21 04:46:59;;;;;;;8.52;3.80;;;13.10;99.90;;;;;;4825956;29;20167;-79
2022/05/21 04:49:25;;;;;;;5.45;3.85;;;13.10;99.90;;;;;;4826005;29;20310;-79
2022/05/21 04:51:51;;;;;;;7.25;3.67;;;13.10;99.90;;;;;;4826147;29;20224;-79
2022/05/21 04:54:16;;;;;;;7.22;3.80;;;13.10;99.90;;;;;;4826067;29;20602;-79
2022/05/21 04:56:42;;;;;;;4.72;4.07;;;13.10;99.90;;;;;;4825840;29;20522;-78
2022/05/21 04:59:10;;;;;;;5.60;3.65;;;13.10;99.90;;;;;;4825976;29;20189;-79
2022/05/21 05:01:37;;;;;;;5.40;3.47;;;13.10;99.90;;;;;;4825708;29;20181;-79
2022/05/21 05:04:02;;;;;;;5.50;3.65;;;13.20;99.90;;;;;;4825887;29;20170;-83
2022/05/21 05:06:28;;;;;;;4.65;3.35;;;13.20;99.90;;;;;;4826076;29;20195;-82
2022/05/21 05:08:53;;;;;;;5.47;4.18;;;13.20;99.90;;;;;;4825861;29;20177;-79
2022/05/21 05:11:19;;;;;;;7.50;4.03;;;13.20;99.90;;;;;;4825621;29;20255;-78
2022/05/21 05:13:45;;;;;;;7.93;3.78;;;13.20;99.90;;;;;;4825622;29;20193;-79
2022/05/21 05:16:10;;;;;;;10.50;3.80;;;13.30;99.90;;;;;;4825502;29;20255;-80
2022/05/21 05:18:36;;;;;;;6.72;3.85;;;13.40;99.90;;;;;;4825793;29;20197;-79
2022/05/21 05:21:02;;;;;;;6.22;3.40;;;13.60;99.90;;;;;;4825823;29;20170;-78
2022/05/21 05:23:28;;;;;;;10.70;4.10;;;13.60;99.90;;;;;;4825691;29;20602;-79
2022/05/21 05:25:53;;;;;;;7.63;4.05;;;13.70;99.90;;;;;;4825420;29;20204;-78
2022/05/21 05:28:23;;;;;;;6.20;4.13;;;13.60;99.90;;;;;;4824330;29;20186;-80
2022/05/21 05:30:49;;;;;;;5.28;3.97;;;13.70;99.90;;;;;;4824248;29;20630;-79
2022/05/21 05:33:16;;;;;;;7.28;3.80;;;13.60;99.90;;;;;;4825865;29;20221;-80
2022/05/21 05:35:41;;;;;;;4.88;3.58;;;13.60;99.90;;;;;;4825440;29;20181;-78
2022/05/21 05:38:12;;;;;;;5.32;4.50;;;13.60;99.90;;;;;;4824869;29;20189;-79
2022/05/21 05:40:45;;;;;;;8.18;4.82;;;13.60;99.90;;;;;;4823903;29;20294;-79
2022/05/21 05:43:12;;;;;;;9.57;5.38;;;13.60;99.90;;;;;;4825574;29;20185;-79
2022/05/21 05:45:38;;;;;;;10.40;5.45;;;13.50;99.90;;;;;;4823840;29;20240;-79
2022/05/21 05:48:04;;;;;;;8.18;4.53;;;13.50;99.90;;;;;;4825560;29;20174;-79
2022/05/21 05:50:31;;;;;;;8.25;5.05;;;13.50;99.90;;;;;;4825546;29;20177;-80
2022/05/21 05:53:02;;;;;;;8.02;5.18;;;13.60;99.90;;;;;;4823929;29;20189;-78
2022/05/21 05:55:28;;;;;;;10.88;5.18;;;13.70;99.90;;;;;;4825344;29;20178;-78
2022/05/21 05:57:54;;;;;;;8.57;5.40;;;13.70;99.90;;;;;;4825386;29;20181;-78
2022/05/21 06:00:20;;;;;;;10.55;5.53;;;13.70;99.90;;;;;;4825050;29;20524;-78
2022/05/21 06:02:58;;;;;;;10.02;6.07;;;13.70;99.90;;;;;;4825418;29;20231;-79
2022/05/21 06:05:32;;;;;;;6.95;5.60;;;13.60;99.90;;;;;;4825029;29;20221;-78
2022/05/21 06:08:01;;;;;;;9.57;6.18;;;13.60;99.90;;;;;;4825292;29;20174;-78
2022/05/21 06:10:36;;;;;;;9.05;6.28;;;13.60;99.90;;;;;;4824018;29;20193;-78
2022/05/21 06:13:03;;;;;;;7.47;5.70;;;13.60;99.90;;;;;;4825271;29;20661;-78
2022/05/21 06:15:28;;;;;;;8.80;6.40;;;13.60;99.90;;;;;;4816000;29;20286;-78
2022/05/21 06:17:54;;;;;;;7.45;6.15;;;13.60;99.90;;;;;;4806889;29;20266;-79
2022/05/21 06:20:24;;;;;;;9.98;6.90;;;13.60;99.90;;;;;;4806872;29;20212;-80
2022/05/21 06:22:50;;;;;;;10.13;6.82;;;13.60;99.90;;;;;;4807545;29;20179;-78
2022/05/21 06:25:19;;;;;;;11.13;7.15;;;13.60;99.90;;;;;;4806698;29;20222;-79
2022/05/21 06:27:50;;;;;;;9.50;7.32;;;13.60;99.90;;;;;;4806737;29;20175;-79
2022/05/21 06:30:17;;;;;;;10.68;8.52;;;13.60;99.90;;;;;;4805289;29;20185;-79
2022/05/21 06:32:43;;;;;;;9.82;8.07;;;13.60;99.90;;;;;;4823712;29;20189;-79
2022/05/21 06:35:11;;;;;;;11.57;9.02;;;13.60;99.90;;;;;;4823580;29;20186;-79
2022/05/21 06:37:37;;;;;;;14.13;9.30;;;13.60;99.90;;;;;;4824878;29;20174;-78
2022/05/21 06:40:05;;;;;;;14.20;10.75;;;13.60;99.90;;;;;;4826189;29;20340;-78
2022/05/21 06:42:30;;;;;;;13.55;9.98;;;13.50;99.90;;;;;;4828043;29;20231;-80
2022/05/21 06:44:56;;;;;;;14.75;10.30;;;13.50;99.90;;;;;;4826474;29;20210;-78
2022/05/21 06:47:22;;;;;;;13.80;10.98;;;13.50;99.90;;;;;;4827635;29;20525;-79
2022/05/21 06:49:47;;;;;;;16.10;10.93;;;13.50;99.90;;;;;;4827958;29;20241;-79
2022/05/21 06:52:13;;;;;;;14.45;10.27;;;13.50;99.90;;;;;;4827829;29;20174;-81
2022/05/21 06:54:39;;;;;;;13.10;11.02;;;13.50;99.90;;;;;;4826579;29;20677;-78
2022/05/21 06:57:10;;;;;;;13.00;11.57;;;13.60;99.90;;;;;;4827796;29;20187;-78
2022/05/21 06:59:36;;;;;;;16.65;11.77;;;13.60;99.90;;;;;;4827543;29;20641;-79
2022/05/21 07:02:02;;;;;;;15.65;11.85;;;13.60;99.90;;;;;;4827449;29;20174;-78
2022/05/21 07:10:09;;;;;;;17.33;13.57;;;13.70;99.90;;;;;;4827537;29;20196;-78
2022/05/21 07:12:36;;;;;;;19.45;12.55;;;13.60;99.90;;;;;;4826586;29;20272;-80
2022/05/21 07:15:04;;;;;;;18.33;13.05;;;13.60;99.90;;;;;;4827562;29;20193;-78
2022/05/21 07:17:30;;;;;;;18.25;13.35;;;13.60;99.90;;;;;;4827198;29;20232;-78
2022/05/21 07:19:55;;;;;;;18.02;13.00;;;13.60;99.90;;;;;;4827502;29;20633;-78
2022/05/21 07:22:21;;;;;;;17.50;12.80;;;13.60;99.90;;;;;;4827320;29;20273;-78
2022/05/21 07:24:47;;;;;;;18.52;12.80;;;13.70;99.90;;;;;;4827070;29;20198;-78
2022/05/21 07:27:13;;;;;;;18.77;13.27;;;13.80;99.90;;;;;;4827392;29;20197;-79
2022/05/21 07:29:39;;;;;;;16.95;12.73;;;13.80;99.90;;;;;;4827341;29;20182;-78
2022/05/21 07:32:14;;;;;;;18.13;13.32;;;13.80;99.90;;;;;;4826959;29;20233;-79
2022/05/21 07:34:39;;;;;;;17.27;13.25;;;13.80;99.90;;;;;;4827068;29;20474;-80
2022/05/21 07:37:05;;;;;;;18.50;13.90;;;13.80;99.90;;;;;;4825915;29;20190;-77
2022/05/21 07:39:31;;;;;;;21.42;13.70;;;13.80;99.90;;;;;;4826786;29;20237;-79
2022/05/21 07:41:56;;;;;;;16.52;13.93;;;13.80;99.90;;;;;;4827158;29;20201;-78
2022/05/21 07:44:22;;;;;;;19.55;13.88;;;13.80;99.90;;;;;;4826897;29;20220;-79
2022/05/21 07:46:47;;;;;;;17.98;13.15;;;13.80;99.90;;;;;;4826719;29;20177;-79
2022/05/21 07:49:13;;;;;;;19.55;13.07;;;13.80;99.90;;;;;;4826975;29;20178;-78
2022/05/21 07:51:39;;;;;;;16.42;12.70;;;13.80;99.90;;;;;;4825997;29;20185;-78
2022/05/21 07:54:04;;;;;;;16.83;13.38;;;13.90;99.90;;;;;;4826748;29;20178;-78
2022/05/21 07:56:30;;;;;;;20.85;12.77;;;13.90;99.90;;;;;;4826955;29;20178;-79
2022/05/21 07:58:57;;;;;;;18.60;13.60;;;14.10;99.90;;;;;;4826898;29;20178;-80
2022/05/21 08:01:22;;;;;;;15.10;12.18;;;14.20;99.90;;;;;;4826667;29;20315;-82
2022/05/21 08:03:48;;;;;;;17.70;12.82;;;14.20;99.90;;;;;;4826811;29;20673;-79
2022/05/21 08:06:15;;;;;;;20.75;13.25;;;14.40;99.90;;;;;;4826506;29;20236;-78
2022/05/21 08:08:40;;;;;;;15.75;11.75;;;14.40;99.90;;;;;;4826585;29;20268;-81
2022/05/21 08:11:07;;;;;;;17.80;11.68;;;14.40;99.90;;;;;;4825438;29;20226;-78
2022/05/21 08:13:34;;;;;;;16.38;11.75;;;14.40;99.90;;;;;;4826609;29;20178;-79
2022/05/21 08:16:01;;;;;;;14.98;10.90;;;14.40;99.90;;;;;;4826273;29;20245;-77
2022/05/21 08:18:28;;;;;;;15.52;11.43;;;14.40;99.90;;;;;;4826806;29;20296;-77
2022/05/21 08:20:54;;;;;;;15.98;11.38;;;14.30;99.90;;;;;;4825128;29;20242;-77
2022/05/21 08:28:50;;;;;;;12.63;10.63;;;14.80;99.90;;;;;;4826388;29;20205;-79
2022/05/21 08:31:16;;;;;;;14.60;9.63;;;15.30;99.90;;;;;;4826060;29;20186;-80
2022/05/21 08:33:42;;;;;;;13.98;9.52;;;15.50;99.90;;;;;;4826141;29;20227;-77
2022/05/21 08:36:08;;;;;;;15.55;9.98;;;15.50;99.90;;;;;;4826358;29;20197;-78
2022/05/21 08:38:34;;;;;;;15.35;10.57;;;15.50;99.90;;;;;;4826310;29;20228;-78
2022/05/21 08:41:09;;;;;;;14.82;10.25;;;15.70;99.90;;;;;;4826012;29;20230;-79
2022/05/21 08:44:04;;;;;;;14.98;9.80;;;15.90;99.90;;;;;;4826158;29;20622;-80
2022/05/21 08:46:48;;;;;;;26.05;9.18;;;15.80;99.90;;;;;;4826101;29;20178;-78
2022/05/21 08:49:45;;;;;;;16.17;9.13;;;15.70;99.90;;;;;;4826348;29;20258;-78
2022/05/21 08:52:17;;;;;;;12.60;8.85;;;15.70;99.90;;;;;;4825983;29;20178;-77
2022/05/21 08:54:45;;;;;;;12.52;9.20;;;15.50;99.90;;;;;;4825785;29;20541;-78
2022/05/21 08:57:35;;;;;;;13.93;9.32;;;15.40;99.90;;;;;;4825961;29;20610;-78
2022/05/21 09:00:25;;;;;;;12.70;8.65;;;15.40;99.90;;;;;;4825636;29;20197;-79
2022/05/21 09:02:52;;;;;;;12.77;8.70;;;15.40;99.90;;;;;;4825106;29;20205;-78
2022/05/21 09:05:20;;;;;;;14.63;8.52;;;15.40;99.90;;;;;;4825701;29;20228;-79
2022/05/21 09:08:02;;;;;;;12.35;8.57;;;15.30;99.90;;;;;;4825974;29;20182;-78
2022/05/21 09:10:33;;;;;;;13.82;7.78;;;15.20;99.90;;;;;;4807603;29;20170;-79
2022/05/21 09:13:12;;;;;;;14.02;8.15;;;15.10;99.90;;;;;;4807720;29;20194;-77
2022/05/21 09:18:22;;;;;;;14.05;8.40;;;15.30;99.90;;;;;;4807630;29;20177;-78
2022/05/21 09:20:58;;;;;;;9.93;8.25;;;15.60;99.90;;;;;;4806090;29;20271;-78
2022/05/21 09:23:25;;;;;;;13.07;8.00;;;15.70;99.90;;;;;;4805979;29;20186;-78
2022/05/21 09:26:08;;;;;;;12.20;7.72;;;15.80;99.90;;;;;;4805867;29;20604;-78
2022/05/21 09:28:38;;;;;;;11.65;7.88;;;15.80;99.90;;;;;;4806105;29;20174;-79
2022/05/21 09:31:05;;;;;;;10.60;7.28;;;15.80;99.90;;;;;;4807012;29;20522;-78
2022/05/21 09:33:43;;;;;;;9.52;6.95;;;15.80;99.90;;;;;;4807209;29;20179;-79
2022/05/21 09:36:18;;;;;;;9.38;6.78;;;15.80;99.90;;;;;;4807151;29;20167;-78
2022/05/21 09:38:52;;;;;;;9.65;6.75;;;15.80;99.90;;;;;;4813824;29;20197;-78
2022/05/21 09:41:23;;;;;;;11.40;6.05;;;16.00;99.90;;;;;;4825540;29;20189;-79
2022/05/21 09:46:35;;;;;;;8.95;5.47;;;16.50;99.90;;;;;;4825294;29;20311;-78
2022/05/21 09:49:20;;;;;;;7.38;4.68;;;16.30;99.90;;;;;;4825419;29;20231;-78
2022/05/21 09:52:04;;;;;;;10.15;4.85;;;16.30;99.90;;;;;;4825213;29;20539;-77
2022/05/21 09:54:41;;;;;;;8.38;4.70;;;16.20;99.90;;;;;;4805477;29;20679;-83
2022/05/21 09:57:21;;;;;;;8.48;4.90;;;16.20;99.90;;;;;;4807103;29;20208;-78
2022/05/21 10:00:13;;;;;;;9.18;4.53;;;16.10;99.90;;;;;;4807037;29;20167;-78
2022/05/21 10:02:43;;;;;;;11.15;5.43;;;16.00;99.90;;;;;;4806583;29;20614;-77
2022/05/21 10:05:15;;;;;;;9.25;5.63;;;15.80;99.90;;;;;;4806616;29;20577;-77
2022/05/21 10:10:58;;;;;;;9.82;4.35;;;15.70;99.90;;;;;;4806965;29;20201;-78
2022/05/21 10:13:26;;;;;;;8.30;4.32;;;15.70;99.90;;;;;;4807464;29;20626;-77
2022/05/21 10:16:02;;;;;;;4.57;3.25;;;15.80;99.90;;;;;;4810032;29;20187;-77
2022/05/21 10:18:35;;;;;;;5.88;3.63;;;15.90;99.90;;;;;;4810481;29;20166;-77
2022/05/21 10:21:16;;;;;;;9.82;3.35;;;16.00;99.90;;;;;;4809270;29;20580;-78
2022/05/21 10:23:41;;;;;;;4.90;2.83;;;16.10;99.90;;;;;;4809009;29;20186;-78
2022/05/21 10:26:10;;;;;;;6.18;2.88;;;16.10;99.90;;;;;;4808817;29;20572;-78
2022/05/21 10:28:51;;;;;;;7.45;3.33;;;16.10;99.90;;;;;;4808972;29;20679;-77
2022/05/21 10:31:42;;;;;;;6.78;3.00;;;16.20;99.90;;;;;;4809923;29;20672;-77
2022/05/21 10:34:26;;;;;;;8.65;3.00;;;16.30;99.90;;;;;;4809905;29;20174;-77
2022/05/21 10:37:22;;;;;;;13.70;3.38;;;16.20;99.90;;;;;;4810233;29;20547;-82
2022/05/21 10:40:09;;;;;;;5.82;2.60;;;16.10;99.90;;;;;;4812784;29;20238;-80
2022/05/21 10:42:53;;;;;;;6.03;2.50;;;16.20;99.90;;;;;;4809883;29;20193;-77
2022/05/21 10:45:31;;;;;;;7.10;2.40;;;16.30;99.90;;;;;;4809883;29;20544;-78
2022/05/21 10:48:09;;;;;;;7.70;2.38;;;16.70;99.90;;;;;;4809789;29;20193;-79
2022/05/21 10:51:02;;;;;;;5.63;2.63;;;16.90;99.90;;;;;;4808630;29;20182;-78
2022/05/21 10:53:52;;;;;;;8.30;2.60;;;17.30;99.90;;;;;;4809733;29;20626;-77
2022/05/21 10:56:27;;;;;;;6.07;2.63;;;17.70;99.90;;;;;;4808639;29;20183;-78
2022/05/21 10:59:30;;;;;;;8.15;2.22;;;17.80;99.90;;;;;;4809901;29;20637;-78
2022/05/21 11:02:33;;;;;;;5.18;2.25;;;17.90;99.90;;;;;;4809404;29;20186;-78
2022/05/21 11:05:36;;;;;;;7.95;2.42;;;17.90;99.90;;;;;;4809525;29;20210;-78
2022/05/21 11:08:13;;;;;;;5.97;2.78;;;17.60;99.90;;;;;;4809606;29;20603;-82
2022/05/21 11:11:01;;;;;;;5.38;2.30;;;17.20;99.90;;;;;;4827305;29;20209;-78
2022/05/21 11:14:11;;;;;;;8.57;3.08;;;16.80;99.90;;;;;;4827595;29;20610;-78
2022/05/21 11:16:47;;;;;;;7.93;3.05;;;16.50;99.90;;;;;;4827300;29;20511;-78
2022/05/21 11:19:21;;;;;;;7.22;2.72;;;16.40;99.90;;;;;;4827670;29;20602;-78
2022/05/21 11:22:02;;;;;;;8.30;2.30;;;16.50;99.90;;;;;;4827464;29;20166;-77
2022/05/21 11:24:41;;;;;;;7.25;2.72;;;16.90;99.90;;;;;;4827249;29;20336;-77
2022/05/21 11:27:10;;;;;;;9.40;2.70;;;17.20;99.90;;;;;;4826220;29;20182;-77
2022/05/21 11:29:58;;;;;;;7.00;2.20;;;17.60;99.90;;;;;;4827278;29;20242;-78
2022/05/21 11:38:20;;;;;;;8.40;2.78;;;18.10;99.90;;;;;;4827290;29;20613;-77
2022/05/21 11:41:24;;;;;;;6.25;2.47;;;17.70;99.90;;;;;;4826947;29;20241;-78
2022/05/21 11:47:06;;;;;;;5.22;2.30;;;17.40;99.90;;;;;;4827075;29;20588;-78
2022/05/21 11:49:34;;;;;;;6.30;2.28;;;17.30;99.90;;;;;;4826951;29;20174;-78
2022/05/21 11:52:26;;;;;;;4.10;2.17;;;17.60;99.90;;;;;;4827043;29;20216;-79
2022/05/21 11:54:55;;;;;;;4.57;1.98;;;18.20;99.90;;;;;;4826747;29;20217;-79
2022/05/21 11:57:41;;;;;;;5.50;2.50;;;18.40;99.90;;;;;;4826961;29;20188;-79
2022/05/21 12:00:08;;;;;;;6.85;2.80;;;18.30;99.90;;;;;;4829251;29;20225;-79
2022/05/21 12:03:10;;;;;;;8.20;2.70;;;18.10;99.90;;;;;;4826687;29;20182;-78
2022/05/21 12:05:37;;;;;;;4.18;2.40;;;17.80;99.90;;;;;;4826525;29;20244;-78
2022/05/21 12:08:35;;;;;;;6.10;2.67;;;17.60;99.90;;;;;;4826761;29;20167;-81
2022/05/21 12:11:08;;;;;;;9.95;2.70;;;17.40;99.90;;;;;;4826774;29;20173;-78
2022/05/21 12:13:34;;;;;;;7.40;2.05;;;17.20;99.90;;;;;;4826632;29;20162;-79
2022/05/21 12:16:19;;;;;;;7.03;1.65;;;17.10;99.90;;;;;;4826588;29;20557;-79
2022/05/21 12:18:47;;;;;;;7.50;1.75;;;17.20;99.90;;;;;;4825441;29;20186;-80
2022/05/21 12:21:36;;;;;;;4.57;1.42;;;17.30;99.90;;;;;;4825299;29;20182;-79
2022/05/21 12:24:08;;;;;;;6.75;1.52;;;17.60;99.90;;;;;;4825319;29;20189;-79
2022/05/21 12:26:39;;;;;;;5.25;1.33;;;18.10;99.90;;;;;;4826190;29;20201;-78
2022/05/21 12:29:24;;;;;;;4.72;1.20;;;18.40;99.90;;;;;;4825282;29;20186;-79
2022/05/21 12:31:51;;;;;;;4.30;1.33;;;18.80;99.90;;;;;;4824835;29;20248;-79
2022/05/21 12:34:23;;;;;;;4.10;1.30;;;19.20;99.90;;;;;;4826240;29;20226;-79
2022/05/21 12:37:14;;;;;;;3.53;1.30;;;19.50;99.90;;;;;;4825612;29;20182;-79
2022/05/21 12:39:55;;;;;;;5.40;2.33;;;19.60;99.90;;;;;;4826043;29;20286;-79
2022/05/21 12:42:33;;;;;;;5.75;1.60;;;19.90;99.90;;;;;;4808077;29;20187;-83
2022/05/21 12:45:00;;;;;;;6.00;1.92;;;20.10;99.90;;;;;;4807858;29;20201;-79
2022/05/21 12:47:32;;;;;;;3.88;1.50;;;20.00;99.90;;;;;;4807661;29;20179;-78
2022/05/21 12:49:59;;;;;;;6.78;1.73;;;19.90;99.90;;;;;;4807868;29;20182;-79
2022/05/21 12:52:45;;;;;;;8.60;2.35;;;19.60;99.90;;;;;;4806769;29;20194;-79
2022/05/21 12:55:22;;;;;;;5.15;1.40;;;19.50;99.90;;;;;;4807470;29;20218;-80
2022/05/21 12:57:50;;;;;;;7.00;1.65;;;19.70;99.90;;;;;;4807851;29;20162;-80
2022/05/21 13:00:21;;;;;;;3.15;1.20;;;19.80;99.90;;;;;;4807698;29;20225;-79
2022/05/21 13:02:53;;;;;;;5.18;1.50;;;19.60;99.90;;;;;;4807410;29;20178;-78
2022/05/21 13:05:30;;;;;;;6.55;1.20;;;19.70;99.90;;;;;;4806318;29;20266;-78
2022/05/21 13:08:01;;;;;;;2.65;0.98;;;19.80;99.90;;;;;;4822437;29;20188;-78
2022/05/21 13:10:35;;;;;;;5.25;1.08;;;19.80;99.90;;;;;;4825836;29;20170;-80
2022/05/21 13:13:04;;;;;;;4.50;1.25;;;19.50;99.90;;;;;;4825905;29;20182;-79
2022/05/21 13:15:42;;;;;;;4.90;1.50;;;19.20;99.90;;;;;;4825730;29;20178;-79
2022/05/21 13:18:34;;;;;;;3.95;1.40;;;19.10;99.90;;;;;;4825644;29;20515;-78
2022/05/21 13:21:09;;;;;;;3.03;1.27;;;18.70;99.90;;;;;;4825813;29;20170;-80
2022/05/21 13:24:01;;;;;;;4.75;1.50;;;18.40;99.90;;;;;;4824483;29;20214;-79
2022/05/21 13:26:34;;;;;;;4.20;1.63;;;18.30;99.90;;;;;;4824344;29;20583;-79
2022/05/21 13:29:21;;;;;;;5.60;1.70;;;18.40;99.90;;;;;;4825708;29;20254;-78
2022/05/21 13:31:49;;;;;;;5.85;1.67;;;18.40;99.90;;;;;;4825401;29;20212;-78
2022/05/21 13:34:19;;;;;;;4.38;1.75;;;18.20;99.90;;;;;;4825374;29;20194;-78
2022/05/21 13:36:52;;;;;;;4.63;1.65;;;18.10;99.90;;;;;;4825586;29;20185;-77
2022/05/21 13:39:30;;;;;;;17.88;2.80;;;17.80;99.90;;;;;;4825423;29;20233;-79
2022/05/21 13:42:15;;;;;;;7.10;2.55;;;17.70;99.90;;;;;;4825387;29;20571;-80
2022/05/21 13:44:45;;;;;;;7.28;1.55;;;17.20;99.90;;;;;;4825255;29;20536;-78